KDQH

Douglas Municipal Airport

Douglas, Georgia, USA
METAR KDQH 222035Z AUTO 10006KT 10SM SCT045 SCT050 23/12 A3021 RMK AO2
Observed Flight Rules
Oct-22 @ 20:35 UTC (34 minutes ago) Visual Flight Rules
Wind Visibility Clouds
100° at 6 knots 10 miles
  • Scattered at 4,500' AGL
  • Scattered at 5,000' AGL
Temperatures Readings
Current 23°C / 73°F
Dewpoint 12°C / 54°F
Humidity 50%
Altimeter 30.21" Hg
Pressure 1023 hPa
Elevation 78
METAR KDQH 222035Z AUTO 10006KT 10SM SCT045 SCT050 23/12 A3021 RMK AO2
Observed Flight Rules
Oct-22 @ 20:35 UTC
(34 minutes ago)
VFR
Wind Visibility
100° at 6 knots 10 miles
Clouds
  • Scattered at 4,500' AGL
  • Scattered at 5,000' AGL
Temperature Dewpoint
23°C / 73°F 12°C / 54°F
Humidity Altimeter Pressure
50% 30.21" Hg 1023 hPa